sensor_id;sensor_type;location;lat;lon;timestamp;temperature;humidity
21682;DHT22;11002;48.256;10.084;2023-08-06T00:00:03;14.80;91.50
21682;DHT22;11002;48.256;10.084;2023-08-06T00:02:35;14.80;91.50
21682;DHT22;11002;48.256;10.084;2023-08-06T00:05:02;14.70;91.40
21682;DHT22;11002;48.256;10.084;2023-08-06T00:07:29;14.80;91.50
21682;DHT22;11002;48.256;10.084;2023-08-06T00:09:57;14.80;91.50
21682;DHT22;11002;48.256;10.084;2023-08-06T00:12:26;14.80;91.40
21682;DHT22;11002;48.256;10.084;2023-08-06T00:14:53;14.70;91.30
21682;DHT22;11002;48.256;10.084;2023-08-06T00:17:20;14.70;91.00
21682;DHT22;11002;48.256;10.084;2023-08-06T00:19:48;14.70;89.70
21682;DHT22;11002;48.256;10.084;2023-08-06T00:22:15;14.70;89.80
21682;DHT22;11002;48.256;10.084;2023-08-06T00:24:42;14.60;90.10
21682;DHT22;11002;48.256;10.084;2023-08-06T00:27:09;14.60;90.20
21682;DHT22;11002;48.256;10.084;2023-08-06T00:29:38;14.60;90.20
21682;DHT22;11002;48.256;10.084;2023-08-06T00:32:05;14.60;90.20
21682;DHT22;11002;48.256;10.084;2023-08-06T00:34:33;14.60;90.10
21682;DHT22;11002;48.256;10.084;2023-08-06T00:37:00;14.60;89.90
21682;DHT22;11002;48.256;10.084;2023-08-06T00:39:27;14.60;89.30
21682;DHT22;11002;48.256;10.084;2023-08-06T00:41:54;14.50;86.20
21682;DHT22;11002;48.256;10.084;2023-08-06T00:44:22;14.40;85.60
21682;DHT22;11002;48.256;10.084;2023-08-06T00:46:50;14.40;86.00
21682;DHT22;11002;48.256;10.084;2023-08-06T00:49:18;14.40;86.30
21682;DHT22;11002;48.256;10.084;2023-08-06T00:51:45;14.30;86.70
21682;DHT22;11002;48.256;10.084;2023-08-06T00:54:14;14.30;86.50
21682;DHT22;11002;48.256;10.084;2023-08-06T00:56:42;14.30;87.30
21682;DHT22;11002;48.256;10.084;2023-08-06T00:59:11;14.30;86.90
21682;DHT22;11002;48.256;10.084;2023-08-06T01:01:38;14.30;88.40
21682;DHT22;11002;48.256;10.084;2023-08-06T01:04:07;14.30;89.10
21682;DHT22;11002;48.256;10.084;2023-08-06T01:06:39;14.30;89.00
21682;DHT22;11002;48.256;10.084;2023-08-06T01:09:14;14.30;89.00
21682;DHT22;11002;48.256;10.084;2023-08-06T01:11:57;14.30;89.90
21682;DHT22;11002;48.256;10.084;2023-08-06T01:14:30;14.30;89.80
21682;DHT22;11002;48.256;10.084;2023-08-06T01:17:01;14.30;90.20
21682;DHT22;11002;48.256;10.084;2023-08-06T01:19:30;14.30;90.40
21682;DHT22;11002;48.256;10.084;2023-08-06T01:21:59;14.30;90.70
21682;DHT22;11002;48.256;10.084;2023-08-06T01:24:26;14.20;90.80
21682;DHT22;11002;48.256;10.084;2023-08-06T01:27:00;14.20;91.40
21682;DHT22;11002;48.256;10.084;2023-08-06T01:29:33;14.20;91.40
21682;DHT22;11002;48.256;10.084;2023-08-06T01:32:03;14.20;91.50
21682;DHT22;11002;48.256;10.084;2023-08-06T01:34:34;14.20;91.80
21682;DHT22;11002;48.256;10.084;2023-08-06T01:37:04;14.20;92.00
21682;DHT22;11002;48.256;10.084;2023-08-06T01:39:34;14.20;92.00
21682;DHT22;11002;48.256;10.084;2023-08-06T01:42:04;14.20;92.40
21682;DHT22;11002;48.256;10.084;2023-08-06T01:44:31;14.10;92.30
21682;DHT22;11002;48.256;10.084;2023-08-06T01:47:00;14.10;92.30
21682;DHT22;11002;48.256;10.084;2023-08-06T01:49:27;14.10;92.30
21682;DHT22;11002;48.256;10.084;2023-08-06T01:51:55;14.00;92.90
21682;DHT22;11002;48.256;10.084;2023-08-06T01:54:23;14.00;93.30
21682;DHT22;11002;48.256;10.084;2023-08-06T01:56:50;13.90;93.50
21682;DHT22;11002;48.256;10.084;2023-08-06T01:59:18;13.90;93.70
21682;DHT22;11002;48.256;10.084;2023-08-06T02:01:46;13.80;94.30
21682;DHT22;11002;48.256;10.084;2023-08-06T02:04:13;13.90;95.10
21682;DHT22;11002;48.256;10.084;2023-08-06T02:06:40;13.80;95.00
21682;DHT22;11002;48.256;10.084;2023-08-06T02:09:08;13.90;95.10
21682;DHT22;11002;48.256;10.084;2023-08-06T02:11:37;13.90;95.10
21682;DHT22;11002;48.256;10.084;2023-08-06T02:14:04;13.80;95.00
21682;DHT22;11002;48.256;10.084;2023-08-06T02:16:31;13.80;95.00
21682;DHT22;11002;48.256;10.084;2023-08-06T02:18:59;13.80;95.00
21682;DHT22;11002;48.256;10.084;2023-08-06T02:21:26;13.80;95.00
21682;DHT22;11002;48.256;10.084;2023-08-06T02:23:54;13.70;95.40
21682;DHT22;11002;48.256;10.084;2023-08-06T02:26:21;13.70;95.70
21682;DHT22;11002;48.256;10.084;2023-08-06T02:28:50;13.70;95.70
21682;DHT22;11002;48.256;10.084;2023-08-06T02:31:17;13.80;95.80
21682;DHT22;11002;48.256;10.084;2023-08-06T02:33:44;13.80;95.90
21682;DHT22;11002;48.256;10.084;2023-08-06T02:36:11;13.80;95.90
21682;DHT22;11002;48.256;10.084;2023-08-06T02:38:39;13.80;95.90
21682;DHT22;11002;48.256;10.084;2023-08-06T02:41:06;13.80;95.90
21682;DHT22;11002;48.256;10.084;2023-08-06T02:43:33;13.80;95.90
21682;DHT22;11002;48.256;10.084;2023-08-06T02:46:02;13.80;95.80
21682;DHT22;11002;48.256;10.084;2023-08-06T02:48:30;13.80;95.80
21682;DHT22;11002;48.256;10.084;2023-08-06T02:50:57;13.80;95.80
21682;DHT22;11002;48.256;10.084;2023-08-06T02:53:27;13.80;95.70
21682;DHT22;11002;48.256;10.084;2023-08-06T02:55:55;13.90;95.40
21682;DHT22;11002;48.256;10.084;2023-08-06T02:58:29;13.90;95.10
21682;DHT22;11002;48.256;10.084;2023-08-06T03:01:18;13.90;95.10
21682;DHT22;11002;48.256;10.084;2023-08-06T03:03:52;13.90;95.10
21682;DHT22;11002;48.256;10.084;2023-08-06T03:06:26;13.90;95.10
21682;DHT22;11002;48.256;10.084;2023-08-06T03:08:56;13.90;94.90
21682;DHT22;11002;48.256;10.084;2023-08-06T03:11:23;13.90;94.40
21682;DHT22;11002;48.256;10.084;2023-08-06T03:13:56;13.90;93.30
21682;DHT22;11002;48.256;10.084;2023-08-06T03:16:24;13.90;92.60
21682;DHT22;11002;48.256;10.084;2023-08-06T03:18:52;13.90;92.20
21682;DHT22;11002;48.256;10.084;2023-08-06T03:21:20;14.00;92.30
21682;DHT22;11002;48.256;10.084;2023-08-06T03:23:48;14.00;92.30
21682;DHT22;11002;48.256;10.084;2023-08-06T03:26:18;14.00;92.30
21682;DHT22;11002;48.256;10.084;2023-08-06T03:28:46;14.00;92.30
21682;DHT22;11002;48.256;10.084;2023-08-06T03:31:14;14.00;91.90
21682;DHT22;11002;48.256;10.084;2023-08-06T03:33:46;14.00;91.40
21682;DHT22;11002;48.256;10.084;2023-08-06T03:36:21;13.90;91.60
21682;DHT22;11002;48.256;10.084;2023-08-06T03:38:49;13.90;91.60
21682;DHT22;11002;48.256;10.084;2023-08-06T03:41:16;13.90;91.90
21682;DHT22;11002;48.256;10.084;2023-08-06T03:43:45;13.80;92.10
21682;DHT22;11002;48.256;10.084;2023-08-06T03:46:19;13.80;91.80
21682;DHT22;11002;48.256;10.084;2023-08-06T03:48:48;13.70;92.00
21682;DHT22;11002;48.256;10.084;2023-08-06T03:51:15;13.70;92.10
21682;DHT22;11002;48.256;10.084;2023-08-06T03:53:45;13.60;92.10
21682;DHT22;11002;48.256;10.084;2023-08-06T03:56:12;13.60;92.40
21682;DHT22;11002;48.256;10.084;2023-08-06T03:58:39;13.50;92.80
21682;DHT22;11002;48.256;10.084;2023-08-06T04:01:08;13.40;93.10
21682;DHT22;11002;48.256;10.084;2023-08-06T04:03:42;13.40;93.20
21682;DHT22;11002;48.256;10.084;2023-08-06T04:06:11;13.40;93.40
21682;DHT22;11002;48.256;10.084;2023-08-06T04:08:38;13.40;93.40
21682;DHT22;11002;48.256;10.084;2023-08-06T04:11:07;13.40;93.80
21682;DHT22;11002;48.256;10.084;2023-08-06T04:13:35;13.40;93.70
21682;DHT22;11002;48.256;10.084;2023-08-06T04:16:02;13.40;93.60
21682;DHT22;11002;48.256;10.084;2023-08-06T04:18:31;13.50;93.30
21682;DHT22;11002;48.256;10.084;2023-08-06T04:20:58;13.50;93.00
21682;DHT22;11002;48.256;10.084;2023-08-06T04:26:00;13.40;93.10
21682;DHT22;11002;48.256;10.084;2023-08-06T04:28:31;13.40;93.00
21682;DHT22;11002;48.256;10.084;2023-08-06T04:30:59;13.30;92.90
21682;DHT22;11002;48.256;10.084;2023-08-06T04:33:27;13.40;92.80
21682;DHT22;11002;48.256;10.084;2023-08-06T04:35:57;13.40;92.60
21682;DHT22;11002;48.256;10.084;2023-08-06T04:38:26;13.50;92.20
21682;DHT22;11002;48.256;10.084;2023-08-06T04:40:54;13.60;92.10
21682;DHT22;11002;48.256;10.084;2023-08-06T04:43:24;13.70;91.40
21682;DHT22;11002;48.256;10.084;2023-08-06T04:45:54;13.70;90.70
21682;DHT22;11002;48.256;10.084;2023-08-06T04:48:21;13.80;90.40
21682;DHT22;11002;48.256;10.084;2023-08-06T04:50:49;13.80;90.20
21682;DHT22;11002;48.256;10.084;2023-08-06T04:53:17;13.90;90.00
21682;DHT22;11002;48.256;10.084;2023-08-06T04:55:44;13.90;90.20
21682;DHT22;11002;48.256;10.084;2023-08-06T04:58:12;13.90;90.10
21682;DHT22;11002;48.256;10.084;2023-08-06T05:00:41;13.90;90.40
21682;DHT22;11002;48.256;10.084;2023-08-06T05:03:08;13.90;90.80
21682;DHT22;11002;48.256;10.084;2023-08-06T05:05:36;13.90;91.50
21682;DHT22;11002;48.256;10.084;2023-08-06T05:08:03;13.90;92.20
21682;DHT22;11002;48.256;10.084;2023-08-06T05:10:30;14.00;92.30
21682;DHT22;11002;48.256;10.084;2023-08-06T05:12:57;14.00;92.30
21682;DHT22;11002;48.256;10.084;2023-08-06T05:15:25;13.90;92.20
21682;DHT22;11002;48.256;10.084;2023-08-06T05:17:53;14.00;92.30
21682;DHT22;11002;48.256;10.084;2023-08-06T05:20:20;14.00;92.30
21682;DHT22;11002;48.256;10.084;2023-08-06T05:22:48;14.00;92.80
21682;DHT22;11002;48.256;10.084;2023-08-06T05:25:15;13.90;93.10
21682;DHT22;11002;48.256;10.084;2023-08-06T05:27:42;13.90;94.00
21682;DHT22;11002;48.256;10.084;2023-08-06T05:30:10;13.90;94.60
21682;DHT22;11002;48.256;10.084;2023-08-06T05:32:37;13.90;94.70
21682;DHT22;11002;48.256;10.084;2023-08-06T05:35:07;13.90;95.10
21682;DHT22;11002;48.256;10.084;2023-08-06T05:37:34;13.80;95.60
21682;DHT22;11002;48.256;10.084;2023-08-06T05:40:01;13.80;95.90
21682;DHT22;11002;48.256;10.084;2023-08-06T05:42:30;13.80;96.50
21682;DHT22;11002;48.256;10.084;2023-08-06T05:44:57;13.80;97.80
21682;DHT22;11002;48.256;10.084;2023-08-06T05:47:25;13.70;97.70
21682;DHT22;11002;48.256;10.084;2023-08-06T05:49:52;13.70;97.80
21682;DHT22;11002;48.256;10.084;2023-08-06T05:52:20;13.70;97.80
21682;DHT22;11002;48.256;10.084;2023-08-06T05:54:48;13.70;97.70
21682;DHT22;11002;48.256;10.084;2023-08-06T05:57:15;13.70;98.20
21682;DHT22;11002;48.256;10.084;2023-08-06T05:59:42;13.70;97.80
21682;DHT22;11002;48.256;10.084;2023-08-06T06:02:10;13.70;97.70
21682;DHT22;11002;48.256;10.084;2023-08-06T06:04:37;13.70;97.70
21682;DHT22;11002;48.256;10.084;2023-08-06T06:07:04;13.80;97.90
21682;DHT22;11002;48.256;10.084;2023-08-06T06:09:33;13.90;98.60
21682;DHT22;11002;48.256;10.084;2023-08-06T06:12:00;14.10;97.90
21682;DHT22;11002;48.256;10.084;2023-08-06T06:14:27;14.20;96.60
21682;DHT22;11002;48.256;10.084;2023-08-06T06:16:55;14.30;94.90
21682;DHT22;11002;48.256;10.084;2023-08-06T06:19:22;14.40;93.30
21682;DHT22;11002;48.256;10.084;2023-08-06T06:21:49;14.60;92.50
21682;DHT22;11002;48.256;10.084;2023-08-06T06:24:16;14.60;91.40
21682;DHT22;11002;48.256;10.084;2023-08-06T06:26:45;14.70;91.10
21682;DHT22;11002;48.256;10.084;2023-08-06T06:29:12;14.70;89.40
21682;DHT22;11002;48.256;10.084;2023-08-06T06:31:39;14.70;87.50
21682;DHT22;11002;48.256;10.084;2023-08-06T06:34:06;14.70;87.00
21682;DHT22;11002;48.256;10.084;2023-08-06T06:36:33;14.70;87.00
21682;DHT22;11002;48.256;10.084;2023-08-06T06:39:01;14.70;89.40
21682;DHT22;11002;48.256;10.084;2023-08-06T06:41:28;14.80;91.70
21682;DHT22;11002;48.256;10.084;2023-08-06T06:44:05;15.00;90.80
21682;DHT22;11002;48.256;10.084;2023-08-06T06:46:33;15.20;89.60
21682;DHT22;11002;48.256;10.084;2023-08-06T06:49:00;15.40;84.80
21682;DHT22;11002;48.256;10.084;2023-08-06T06:51:27;15.50;78.60
21682;DHT22;11002;48.256;10.084;2023-08-06T06:53:54;15.60;74.90
21682;DHT22;11002;48.256;10.084;2023-08-06T06:56:21;15.60;75.50
21682;DHT22;11002;48.256;10.084;2023-08-06T06:58:49;15.60;74.00
21682;DHT22;11002;48.256;10.084;2023-08-06T07:01:18;15.60;74.70
21682;DHT22;11002;48.256;10.084;2023-08-06T07:03:45;15.70;70.60
21682;DHT22;11002;48.256;10.084;2023-08-06T07:06:12;15.80;70.70
21682;DHT22;11002;48.256;10.084;2023-08-06T07:08:41;15.90;67.90
21682;DHT22;11002;48.256;10.084;2023-08-06T07:11:08;16.20;66.80
21682;DHT22;11002;48.256;10.084;2023-08-06T07:13:35;16.40;66.70
21682;DHT22;11002;48.256;10.084;2023-08-06T07:16:03;16.30;64.40
21682;DHT22;11002;48.256;10.084;2023-08-06T07:18:32;16.10;64.30
21682;DHT22;11002;48.256;10.084;2023-08-06T07:20:59;16.00;64.50
21682;DHT22;11002;48.256;10.084;2023-08-06T07:23:26;15.90;67.80
21682;DHT22;11002;48.256;10.084;2023-08-06T07:25:54;15.80;68.20
21682;DHT22;11002;48.256;10.084;2023-08-06T07:28:24;15.70;67.50
21682;DHT22;11002;48.256;10.084;2023-08-06T07:30:53;15.60;63.70
21682;DHT22;11002;48.256;10.084;2023-08-06T07:33:21;15.60;67.60
21682;DHT22;11002;48.256;10.084;2023-08-06T07:35:49;15.70;65.30
21682;DHT22;11002;48.256;10.084;2023-08-06T07:38:16;15.80;64.70
21682;DHT22;11002;48.256;10.084;2023-08-06T07:40:45;16.00;66.30
21682;DHT22;11002;48.256;10.084;2023-08-06T07:43:12;16.30;66.70
21682;DHT22;11002;48.256;10.084;2023-08-06T07:45:39;16.40;65.60
21682;DHT22;11002;48.256;10.084;2023-08-06T07:48:06;16.30;61.80
21682;DHT22;11002;48.256;10.084;2023-08-06T07:50:34;16.10;60.40
21682;DHT22;11002;48.256;10.084;2023-08-06T07:53:02;15.90;59.80
21682;DHT22;11002;48.256;10.084;2023-08-06T07:55:30;15.80;61.20
21682;DHT22;11002;48.256;10.084;2023-08-06T07:57:57;15.70;63.70
21682;DHT22;11002;48.256;10.084;2023-08-06T08:00:24;15.70;63.70
21682;DHT22;11002;48.256;10.084;2023-08-06T08:02:51;15.80;64.00
21682;DHT22;11002;48.256;10.084;2023-08-06T08:05:19;16.20;59.70
21682;DHT22;11002;48.256;10.084;2023-08-06T08:07:46;16.40;57.80
21682;DHT22;11002;48.256;10.084;2023-08-06T08:10:15;16.80;54.80
21682;DHT22;11002;48.256;10.084;2023-08-06T08:12:42;17.30;52.30
21682;DHT22;11002;48.256;10.084;2023-08-06T08:15:09;17.70;52.00
21682;DHT22;11002;48.256;10.084;2023-08-06T08:17:37;17.90;50.90
21682;DHT22;11002;48.256;10.084;2023-08-06T08:20:05;17.90;51.50
21682;DHT22;11002;48.256;10.084;2023-08-06T08:22:33;17.80;48.40
21682;DHT22;11002;48.256;10.084;2023-08-06T08:25:00;17.80;48.20
21682;DHT22;11002;48.256;10.084;2023-08-06T08:27:28;18.00;48.00
21682;DHT22;11002;48.256;10.084;2023-08-06T08:29:56;18.00;46.50
21682;DHT22;11002;48.256;10.084;2023-08-06T08:32:24;17.90;46.40
21682;DHT22;11002;48.256;10.084;2023-08-06T08:34:51;18.00;46.50
21682;DHT22;11002;48.256;10.084;2023-08-06T08:37:19;18.00;46.50
21682;DHT22;11002;48.256;10.084;2023-08-06T08:39:46;17.90;46.40
21682;DHT22;11002;48.256;10.084;2023-08-06T08:42:13;17.70;49.20
21682;DHT22;11002;48.256;10.084;2023-08-06T08:44:42;17.40;52.40
21682;DHT22;11002;48.256;10.084;2023-08-06T08:47:10;17.00;51.00
21682;DHT22;11002;48.256;10.084;2023-08-06T08:49:38;16.70;51.80
21682;DHT22;11002;48.256;10.084;2023-08-06T08:52:07;16.50;56.80
21682;DHT22;11002;48.256;10.084;2023-08-06T08:54:38;16.30;57.70
21682;DHT22;11002;48.256;10.084;2023-08-06T08:57:05;16.20;57.60
21682;DHT22;11002;48.256;10.084;2023-08-06T08:59:33;16.10;59.00
21682;DHT22;11002;48.256;10.084;2023-08-06T09:02:02;16.00;60.00
21682;DHT22;11002;48.256;10.084;2023-08-06T09:04:30;15.90;58.70
21682;DHT22;11002;48.256;10.084;2023-08-06T09:06:58;15.80;58.40
21682;DHT22;11002;48.256;10.084;2023-08-06T09:09:30;15.80;60.50
21682;DHT22;11002;48.256;10.084;2023-08-06T09:12:01;15.80;57.20
21682;DHT22;11002;48.256;10.084;2023-08-06T09:14:28;15.80;57.20
21682;DHT22;11002;48.256;10.084;2023-08-06T09:16:56;15.90;57.30
21682;DHT22;11002;48.256;10.084;2023-08-06T09:19:27;16.00;57.40
21682;DHT22;11002;48.256;10.084;2023-08-06T09:21:55;16.10;57.50
21682;DHT22;11002;48.256;10.084;2023-08-06T09:24:23;16.00;58.80
21682;DHT22;11002;48.256;10.084;2023-08-06T09:26:50;16.00;60.20
21682;DHT22;11002;48.256;10.084;2023-08-06T09:29:17;15.70;60.50
21682;DHT22;11002;48.256;10.084;2023-08-06T09:31:46;15.50;61.60
21682;DHT22;11002;48.256;10.084;2023-08-06T09:34:15;15.30;63.30
21682;DHT22;11002;48.256;10.084;2023-08-06T09:36:46;15.10;66.90
21682;DHT22;11002;48.256;10.084;2023-08-06T09:39:14;14.90;69.80
21682;DHT22;11002;48.256;10.084;2023-08-06T09:41:42;14.70;69.60
21682;DHT22;11002;48.256;10.084;2023-08-06T09:44:16;14.60;71.00
21682;DHT22;11002;48.256;10.084;2023-08-06T09:46:47;14.40;74.30
21682;DHT22;11002;48.256;10.084;2023-08-06T09:49:15;14.40;74.50
21682;DHT22;11002;48.256;10.084;2023-08-06T09:51:43;14.30;76.80
21682;DHT22;11002;48.256;10.084;2023-08-06T09:54:12;14.30;78.10
21682;DHT22;11002;48.256;10.084;2023-08-06T09:56:40;14.30;78.30
21682;DHT22;11002;48.256;10.084;2023-08-06T09:59:09;14.30;79.80
21682;DHT22;11002;48.256;10.084;2023-08-06T10:01:37;14.40;81.90
21682;DHT22;11002;48.256;10.084;2023-08-06T10:04:06;14.40;78.20
21682;DHT22;11002;48.256;10.084;2023-08-06T10:06:34;14.50;78.00
21682;DHT22;11002;48.256;10.084;2023-08-06T10:09:04;14.50;77.50
21682;DHT22;11002;48.256;10.084;2023-08-06T10:11:31;14.50;76.20
21682;DHT22;11002;48.256;10.084;2023-08-06T10:14:04;14.50;76.90
21682;DHT22;11002;48.256;10.084;2023-08-06T10:16:33;14.30;78.70
21682;DHT22;11002;48.256;10.084;2023-08-06T10:19:01;14.30;79.30
21682;DHT22;11002;48.256;10.084;2023-08-06T10:21:31;14.30;80.60
21682;DHT22;11002;48.256;10.084;2023-08-06T10:23:58;14.30;82.60
21682;DHT22;11002;48.256;10.084;2023-08-06T10:26:29;14.40;82.60
21682;DHT22;11002;48.256;10.084;2023-08-06T10:28:56;14.40;82.60
21682;DHT22;11002;48.256;10.084;2023-08-06T10:31:53;14.50;82.70
21682;DHT22;11002;48.256;10.084;2023-08-06T10:34:20;14.60;84.10
21682;DHT22;11002;48.256;10.084;2023-08-06T10:36:47;14.70;84.60
21682;DHT22;11002;48.256;10.084;2023-08-06T10:39:15;14.90;91.60
21682;DHT22;11002;48.256;10.084;2023-08-06T10:41:44;15.10;85.50
21682;DHT22;11002;48.256;10.084;2023-08-06T10:44:11;15.20;86.80
21682;DHT22;11002;48.256;10.084;2023-08-06T10:46:38;15.30;79.90
21682;DHT22;11002;48.256;10.084;2023-08-06T10:49:06;15.20;78.30
21682;DHT22;11002;48.256;10.084;2023-08-06T10:51:34;15.40;81.40
21682;DHT22;11002;48.256;10.084;2023-08-06T10:54:02;16.00;82.20
21682;DHT22;11002;48.256;10.084;2023-08-06T10:56:29;16.40;72.60
21682;DHT22;11002;48.256;10.084;2023-08-06T10:58:58;16.80;67.90
21682;DHT22;11002;48.256;10.084;2023-08-06T11:01:28;17.10;66.60
21682;DHT22;11002;48.256;10.084;2023-08-06T11:04:00;17.30;62.60
21682;DHT22;11002;48.256;10.084;2023-08-06T11:06:28;17.50;58.70
21682;DHT22;11002;48.256;10.084;2023-08-06T11:08:55;17.50;58.70
21682;DHT22;11002;48.256;10.084;2023-08-06T11:11:23;17.50;58.70
21682;DHT22;11002;48.256;10.084;2023-08-06T11:13:51;17.60;63.00
21682;DHT22;11002;48.256;10.084;2023-08-06T11:16:21;17.30;58.60
21682;DHT22;11002;48.256;10.084;2023-08-06T11:18:50;17.00;62.40
21682;DHT22;11002;48.256;10.084;2023-08-06T11:21:20;16.60;64.70
21682;DHT22;11002;48.256;10.084;2023-08-06T11:23:48;16.30;66.10
21682;DHT22;11002;48.256;10.084;2023-08-06T11:26:19;16.00;67.20
21682;DHT22;11002;48.256;10.084;2023-08-06T11:28:46;15.70;70.60
21682;DHT22;11002;48.256;10.084;2023-08-06T11:31:20;15.50;71.20
21682;DHT22;11002;48.256;10.084;2023-08-06T11:33:47;15.30;74.30
21682;DHT22;11002;48.256;10.084;2023-08-06T11:36:14;15.00;76.60
21682;DHT22;11002;48.256;10.084;2023-08-06T11:38:42;14.90;79.00
21682;DHT22;11002;48.256;10.084;2023-08-06T11:41:09;14.70;82.90
21682;DHT22;11002;48.256;10.084;2023-08-06T11:43:36;14.60;87.60
21682;DHT22;11002;48.256;10.084;2023-08-06T11:46:04;14.60;89.40
21682;DHT22;11002;48.256;10.084;2023-08-06T11:48:32;14.60;90.00
21682;DHT22;11002;48.256;10.084;2023-08-06T11:50:59;14.60;90.20
21682;DHT22;11002;48.256;10.084;2023-08-06T11:53:27;14.60;91.40
21682;DHT22;11002;48.256;10.084;2023-08-06T11:55:55;14.60;91.80
21682;DHT22;11002;48.256;10.084;2023-08-06T11:58:23;14.70;91.70
21682;DHT22;11002;48.256;10.084;2023-08-06T12:00:50;14.70;91.40
21682;DHT22;11002;48.256;10.084;2023-08-06T12:03:19;14.80;92.60
21682;DHT22;11002;48.256;10.084;2023-08-06T12:05:48;14.90;90.80
21682;DHT22;11002;48.256;10.084;2023-08-06T12:08:15;15.00;90.70
21682;DHT22;11002;48.256;10.084;2023-08-06T12:10:42;15.10;90.80
21682;DHT22;11002;48.256;10.084;2023-08-06T12:13:09;15.20;88.10
21682;DHT22;11002;48.256;10.084;2023-08-06T12:15:37;15.30;87.00
21682;DHT22;11002;48.256;10.084;2023-08-06T12:18:04;15.40;85.00
21682;DHT22;11002;48.256;10.084;2023-08-06T12:20:32;15.50;85.10
21682;DHT22;11002;48.256;10.084;2023-08-06T12:23:00;15.60;86.00
21682;DHT22;11002;48.256;10.084;2023-08-06T12:25:28;15.60;84.90
21682;DHT22;11002;48.256;10.084;2023-08-06T12:27:55;15.50;81.80
21682;DHT22;11002;48.256;10.084;2023-08-06T12:30:22;15.40;78.90
21682;DHT22;11002;48.256;10.084;2023-08-06T12:32:49;15.30;79.80
21682;DHT22;11002;48.256;10.084;2023-08-06T12:35:17;15.30;82.80
21682;DHT22;11002;48.256;10.084;2023-08-06T12:37:45;15.20;83.40
21682;DHT22;11002;48.256;10.084;2023-08-06T12:40:14;15.20;83.10
21682;DHT22;11002;48.256;10.084;2023-08-06T12:42:42;15.20;83.50
21682;DHT22;11002;48.256;10.084;2023-08-06T12:45:09;15.10;83.30
21682;DHT22;11002;48.256;10.084;2023-08-06T12:47:36;15.00;83.20
21682;DHT22;11002;48.256;10.084;2023-08-06T12:50:04;15.00;86.80
21682;DHT22;11002;48.256;10.084;2023-08-06T12:52:32;15.00;87.50
21682;DHT22;11002;48.256;10.084;2023-08-06T12:54:59;14.90;88.70
21682;DHT22;11002;48.256;10.084;2023-08-06T12:57:27;14.90;91.70
21682;DHT22;11002;48.256;10.084;2023-08-06T12:59:55;14.90;92.60
21682;DHT22;11002;48.256;10.084;2023-08-06T13:02:22;14.70;91.80
21682;DHT22;11002;48.256;10.084;2023-08-06T13:04:49;14.60;92.50
21682;DHT22;11002;48.256;10.084;2023-08-06T13:07:17;14.50;93.30
21682;DHT22;11002;48.256;10.084;2023-08-06T13:09:44;14.40;95.30
21682;DHT22;11002;48.256;10.084;2023-08-06T13:12:11;14.30;96.90
21682;DHT22;11002;48.256;10.084;2023-08-06T13:14:40;14.20;99.40
21682;DHT22;11002;48.256;10.084;2023-08-06T13:17:07;14.20;99.90
21682;DHT22;11002;48.256;10.084;2023-08-06T13:19:35;14.10;99.90
21682;DHT22;11002;48.256;10.084;2023-08-06T13:22:03;14.20;99.90
21682;DHT22;11002;48.256;10.084;2023-08-06T13:24:31;14.20;99.90
21682;DHT22;11002;48.256;10.084;2023-08-06T13:26:58;14.30;99.90
21682;DHT22;11002;48.256;10.084;2023-08-06T13:29:26;14.30;99.90
21682;DHT22;11002;48.256;10.084;2023-08-06T13:31:54;14.40;99.90
21682;DHT22;11002;48.256;10.084;2023-08-06T13:34:22;14.50;99.90
21682;DHT22;11002;48.256;10.084;2023-08-06T13:36:49;14.60;99.90
21682;DHT22;11002;48.256;10.084;2023-08-06T13:39:16;14.70;99.90
21682;DHT22;11002;48.256;10.084;2023-08-06T13:41:44;14.90;99.90
21682;DHT22;11002;48.256;10.084;2023-08-06T13:44:11;15.10;99.90
21682;DHT22;11002;48.256;10.084;2023-08-06T13:46:41;15.20;99.90
21682;DHT22;11002;48.256;10.084;2023-08-06T13:49:09;15.30;97.60
21682;DHT22;11002;48.256;10.084;2023-08-06T13:51:37;15.30;93.50
21682;DHT22;11002;48.256;10.084;2023-08-06T13:54:04;15.30;91.90
21682;DHT22;11002;48.256;10.084;2023-08-06T13:56:32;15.30;89.40
21682;DHT22;11002;48.256;10.084;2023-08-06T13:59:00;15.30;88.50
21682;DHT22;11002;48.256;10.084;2023-08-06T14:01:27;15.30;84.30
21682;DHT22;11002;48.256;10.084;2023-08-06T14:03:54;15.30;88.30
21682;DHT22;11002;48.256;10.084;2023-08-06T14:06:23;15.20;85.10
21682;DHT22;11002;48.256;10.084;2023-08-06T14:08:50;15.20;85.80
21682;DHT22;11002;48.256;10.084;2023-08-06T14:11:17;15.20;89.90
21682;DHT22;11002;48.256;10.084;2023-08-06T14:13:44;15.30;90.00
21682;DHT22;11002;48.256;10.084;2023-08-06T14:16:12;15.30;85.20
21682;DHT22;11002;48.256;10.084;2023-08-06T14:18:39;15.30;87.40
21682;DHT22;11002;48.256;10.084;2023-08-06T14:21:07;15.20;83.40
21682;DHT22;11002;48.256;10.084;2023-08-06T14:23:36;15.20;80.90
21682;DHT22;11002;48.256;10.084;2023-08-06T14:26:03;15.10;76.80
21682;DHT22;11002;48.256;10.084;2023-08-06T14:28:30;15.10;76.90
21682;DHT22;11002;48.256;10.084;2023-08-06T14:30:57;15.00;75.90
21682;DHT22;11002;48.256;10.084;2023-08-06T14:33:24;15.00;76.70
21682;DHT22;11002;48.256;10.084;2023-08-06T14:35:52;15.00;76.60
21682;DHT22;11002;48.256;10.084;2023-08-06T14:38:19;15.00;76.60
21682;DHT22;11002;48.256;10.084;2023-08-06T14:40:48;15.00;76.60
21682;DHT22;11002;48.256;10.084;2023-08-06T14:43:15;15.00;74.10
21682;DHT22;11002;48.256;10.084;2023-08-06T14:45:42;15.10;71.50
21682;DHT22;11002;48.256;10.084;2023-08-06T14:48:09;15.10;73.60
21682;DHT22;11002;48.256;10.084;2023-08-06T14:50:36;15.20;71.20
21682;DHT22;11002;48.256;10.084;2023-08-06T14:53:05;15.20;70.10
21682;DHT22;11002;48.256;10.084;2023-08-06T14:55:34;15.30;70.20
21682;DHT22;11002;48.256;10.084;2023-08-06T14:58:02;15.40;68.80
21682;DHT22;11002;48.256;10.084;2023-08-06T15:00:30;15.50;68.40
21682;DHT22;11002;48.256;10.084;2023-08-06T15:02:57;15.50;64.90
21682;DHT22;11002;48.256;10.084;2023-08-06T15:05:24;15.60;63.70
21682;DHT22;11002;48.256;10.084;2023-08-06T15:07:51;15.60;65.00
21682;DHT22;11002;48.256;10.084;2023-08-06T15:10:19;15.60;61.90
21682;DHT22;11002;48.256;10.084;2023-08-06T15:12:47;15.70;61.80
21682;DHT22;11002;48.256;10.084;2023-08-06T15:15:16;15.90;61.70
21682;DHT22;11002;48.256;10.084;2023-08-06T15:17:44;16.00;60.20
21682;DHT22;11002;48.256;10.084;2023-08-06T15:20:12;16.00;59.10
21682;DHT22;11002;48.256;10.084;2023-08-06T15:22:39;16.00;60.00